Time;durP1;ratioP1;P1;durP2;ratioP2;P2;SDS_P1;SDS_P2;PMS_P1;PMS_P2;Temp;Humidity;BMP_temperature;BMP_pressure;BME280_temperature;BME280_humidity;BME280_pressure;Samples;Min_cycle;Max_cycle;Signal;HPM_P1;HPM_P2
2022/06/16 00:02:23;;;;;;;6.55;1.75;;;;;;;20.08;75.08;100080.06;10497337;28;20051;-86
2022/06/16 00:07:25;;;;;;;3.92;1.48;;;;;;;20.76;76.06;100206.19;10497161;28;20056;-85
2022/06/16 00:12:26;;;;;;;3.47;1.38;;;;;;;19.84;75.66;100045.84;10497243;28;20056;-86
2022/06/16 00:17:27;;;;;;;3.35;1.70;;;;;;;20.90;76.24;100214.81;10497317;28;20037;-86
2022/06/16 00:22:28;;;;;;;5.85;2.03;;;;;;;20.38;76.67;100150.00;10496971;28;20040;-86
2022/06/16 00:27:29;;;;;;;3.00;2.08;;;;;;;20.79;77.39;100219.19;10496004;28;20038;-86
2022/06/16 00:32:30;;;;;;;5.57;2.00;;;;;;;20.47;77.68;100171.00;10496692;28;20558;-85
2022/06/16 00:37:30;;;;;;;2.65;1.63;;;;;;;19.96;78.02;100078.19;10496105;28;20123;-85
2022/06/16 00:42:31;;;;;;;14.82;2.53;;;;;;;19.92;78.55;100076.19;10495008;28;20389;-83
2022/06/16 00:47:32;;;;;;;9.63;2.42;;;;;;;20.73;78.66;100206.63;10496236;28;20047;-85
2022/06/16 00:52:33;;;;;;;31.38;4.10;;;;;;;20.69;78.68;100213.56;10495818;28;20048;-86
2022/06/16 00:57:41;;;;;;;21.10;3.20;;;;;;;20.64;80.42;100216.16;10495513;28;20044;-81
2022/06/16 01:02:42;;;;;;;13.20;3.13;;;;;;;20.57;79.44;100215.47;10495226;28;20032;-83
2022/06/16 01:07:46;;;;;;;26.63;3.67;;;;;;;20.39;80.65;100206.41;10492785;28;20061;-82
2022/06/16 01:18:48;;;;;;;8.73;2.28;;;;;;;18.88;81.89;100002.09;10493957;28;20550;-84
2022/06/16 01:24:07;;;;;;;23.20;3.47;;;;;;;20.27;81.77;100246.88;10494115;28;20131;-82
2022/06/16 01:29:35;;;;;;;20.02;3.20;;;;;;;20.30;82.59;100232.13;10476150;28;20102;-83
2022/06/16 01:34:48;;;;;;;52.28;5.00;;;;;;;19.40;83.10;100095.72;10493816;28;20043;-82
2022/06/16 01:39:59;;;;;;;41.47;3.80;;;;;;;19.51;82.24;100113.78;10485605;28;20094;-82
2022/06/16 01:45:06;;;;;;;42.72;4.15;;;;;;;20.27;82.11;100251.47;10491729;28;20067;-82
2022/06/16 01:50:15;;;;;;;19.80;3.30;;;;;;;19.72;81.84;100184.38;10490499;28;20496;-82
2022/06/16 01:55:19;;;;;;;10.27;2.40;;;;;;;20.14;81.07;100252.53;10498726;28;20051;-80
2022/06/16 02:00:24;;;;;;;8.23;2.60;;;;;;;19.47;80.87;100136.81;10495414;28;20048;-82
2022/06/16 02:05:50;;;;;;;5.72;2.50;;;;;;;20.37;81.62;100275.16;10501782;28;20032;-82
2022/06/16 02:11:03;;;;;;;9.30;3.10;;;;;;;18.91;80.51;100038.50;10478042;28;20135;-83
2022/06/16 02:16:38;;;;;;;9.23;3.10;;;;;;;20.20;79.97;100239.97;10460201;28;20508;-82
2022/06/16 02:21:43;;;;;;;8.57;3.53;;;;;;;19.76;79.75;100162.09;10436678;28;20276;-82
2022/06/16 02:26:45;;;;;;;10.23;3.13;;;;;;;20.25;79.56;100232.00;10460761;28;20044;-81
2022/06/16 02:31:58;;;;;;;6.57;2.95;;;;;;;20.61;81.06;100282.25;10459579;28;20131;-81
2022/06/16 02:37:17;;;;;;;;;;;;;;;20.79;78.26;100288.53;10459344;28;20033;-80
2022/06/16 02:43:02;;;;;;;24.58;3.10;;;;;;;20.71;80.46;100293.25;10458231;28;20307;-83
2022/06/16 02:48:05;;;;;;;41.47;4.68;;;;;;;19.83;78.69;100149.34;10459108;28;20045;-81
2022/06/16 02:58:43;;;;;;;9.65;2.70;;;;;;;20.00;79.09;100148.63;10458598;28;20041;-81
2022/06/16 03:04:05;;;;;;;7.38;2.80;;;;;;;20.06;79.78;100148.50;10457429;28;20090;-84
2022/06/16 03:09:06;;;;;;;14.35;3.25;;;;;;;20.97;78.34;100302.75;10485361;28;20052;-83
2022/06/16 03:14:07;;;;;;;11.20;3.47;;;;;;;20.94;78.51;100281.63;10478385;28;20051;-83
2022/06/16 03:19:08;;;;;;;10.68;3.47;;;;;;;20.84;78.07;100275.16;10496784;28;20049;-83
2022/06/16 03:24:09;;;;;;;7.00;2.80;;;;;;;20.23;77.63;100154.00;10494615;28;20086;-85
2022/06/16 03:29:10;;;;;;;25.63;3.65;;;;;;;21.29;77.75;100307.69;10495191;28;20138;-86
2022/06/16 03:34:10;;;;;;;18.83;3.20;;;;;;;21.75;76.39;100308.63;10492621;28;20040;-80
2022/06/16 03:39:11;;;;;;;16.15;3.40;;;;;;;23.33;71.60;100304.78;10491032;28;20505;-84
2022/06/16 03:44:12;;;;;;;8.07;2.85;;;;;;;25.00;66.70;100311.94;10489870;28;20412;-80
2022/06/16 03:49:13;;;;;;;6.35;2.05;;;;;;;25.45;63.78;100234.38;10488338;28;20496;-83
2022/06/16 03:54:14;;;;;;;8.98;2.47;;;;;;;24.99;63.17;100196.16;10483666;28;20396;-83
2022/06/16 03:59:14;;;;;;;7.32;2.45;;;;;;;25.27;63.93;100311.81;10483597;28;20044;-86
2022/06/16 04:04:15;;;;;;;10.55;2.55;;;;;;;24.43;65.13;100307.25;10462351;28;20051;-83
2022/06/16 04:09:16;;;;;;;6.13;2.30;;;;;;;23.36;65.68;100216.72;10477360;28;20052;-80
2022/06/16 04:14:17;;;;;;;4.95;2.17;;;;;;;23.88;66.55;100332.81;10489864;28;20051;-85
2022/06/16 04:19:23;;;;;;;5.07;2.53;;;;;;;23.74;66.39;100335.13;10497673;28;20044;-78
2022/06/16 04:24:24;;;;;;;5.20;2.17;;;;;;;23.64;66.18;100332.28;10478536;28;20373;-79
2022/06/16 04:29:25;;;;;;;13.70;2.70;;;;;;;22.31;66.33;100106.63;10495884;28;20036;-84
2022/06/16 04:34:26;;;;;;;4.70;2.42;;;;;;;23.55;65.80;100271.44;10496975;28;20075;-82
2022/06/16 04:39:26;;;;;;;5.05;2.50;;;;;;;24.06;65.57;100327.03;10494432;28;20131;-72
2022/06/16 04:44:27;;;;;;;9.85;2.60;;;;;;;24.19;64.74;100339.34;10495446;28;20074;-72
2022/06/16 04:49:29;;;;;;;8.35;2.38;;;;;;;23.71;64.91;100224.44;10493720;28;20456;-69
2022/06/16 04:54:30;;;;;;;6.35;2.35;;;;;;;24.32;64.61;100313.66;10495368;28;20416;-70
2022/06/16 04:59:31;;;;;;;8.18;2.65;;;;;;;24.52;63.96;100327.41;10494857;28;20442;-70
2022/06/16 05:04:32;;;;;;;10.02;2.80;;;;;;;23.61;64.31;100176.31;10496270;28;20119;-69
2022/06/16 05:09:34;;;;;;;8.60;2.40;;;;;;;24.23;64.61;100266.34;10452920;28;20068;-70
2022/06/16 05:14:35;;;;;;;9.00;2.53;;;;;;;24.60;64.15;100310.63;10453531;28;20048;-70
2022/06/16 05:19:35;;;;;;;6.38;2.47;;;;;;;24.72;64.27;100353.09;10453925;28;20056;-70
2022/06/16 05:24:36;;;;;;;7.80;2.53;;;;;;;24.59;63.81;100305.47;10454100;28;20178;-69
2022/06/16 05:29:37;;;;;;;5.10;2.25;;;;;;;24.69;63.75;100321.00;10460016;28;20037;-69
2022/06/16 05:34:38;;;;;;;6.85;2.90;;;;;;;24.93;63.11;100319.53;10461820;28;20041;-69
2022/06/16 05:39:39;;;;;;;28.77;3.45;;;;;;;25.42;61.61;100300.16;10460173;28;20143;-70
2022/06/16 05:44:40;;;;;;;4.53;2.38;;;;;;;25.83;59.79;100324.78;10471995;28;20120;-70
2022/06/16 05:49:42;;;;;;;6.97;2.63;;;;;;;26.10;59.89;100315.56;10446834;28;20140;-70
2022/06/16 05:54:43;;;;;;;7.40;2.53;;;;;;;26.15;58.09;100217.56;10419740;28;20034;-70
2022/06/16 05:59:43;;;;;;;10.05;3.10;;;;;;;27.09;57.17;100291.41;10419499;28;20057;-70
2022/06/16 06:04:47;;;;;;;4.65;2.30;;;;;;;26.78;56.19;100220.69;10419219;28;20099;-72
2022/06/16 06:21:00;;;;;;;4.97;2.83;;;;;;;27.56;54.01;100262.84;10459368;28;20500;-69
2022/06/16 06:26:01;;;;;;;6.72;2.75;;;;;;;28.10;53.58;100302.88;10459729;28;20047;-70
2022/06/16 06:31:02;;;;;;;7.53;2.45;;;;;;;27.77;52.59;100217.09;10459112;28;20472;-74
2022/06/16 06:36:03;;;;;;;6.05;2.30;;;;;;;28.50;51.05;100295.41;10459570;28;20179;-71
2022/06/16 06:41:04;;;;;;;3.88;2.10;;;;;;;27.98;50.74;100166.72;10457996;28;20444;-70
2022/06/16 06:46:06;;;;;;;5.35;2.33;;;;;;;28.36;49.83;100166.03;10458425;28;20045;-70
2022/06/16 06:51:07;;;;;;;31.67;3.30;;;;;;;29.28;49.02;100223.13;10458327;28;20496;-71
2022/06/16 06:56:10;;;;;;;6.28;2.10;;;;;;;28.53;47.66;100103.56;10457313;28;20041;-70
2022/06/16 07:01:10;;;;;;;7.43;2.42;;;;;;;28.64;48.99;100236.25;10458328;28;20404;-68
2022/06/16 07:06:11;;;;;;;6.40;2.55;;;;;;;28.60;49.75;100259.81;10458905;28;20040;-70
2022/06/16 07:11:13;;;;;;;8.68;2.25;;;;;;;29.30;48.17;100266.63;10458332;28;20060;-70
2022/06/16 07:16:14;;;;;;;5.25;2.28;;;;;;;29.38;47.20;100252.28;10458352;28;20192;-70
2022/06/16 07:21:15;;;;;;;3.45;2.13;;;;;;;29.54;46.96;100250.94;10457598;28;20140;-71
2022/06/16 07:26:18;;;;;;;3.60;1.80;;;;;;;28.41;45.79;100054.00;10457537;28;20132;-71
2022/06/16 07:31:19;;;;;;;6.70;2.15;;;;;;;28.99;46.95;100222.41;10455394;28;20037;-70
2022/06/16 07:36:20;;;;;;;9.05;2.47;;;;;;;28.21;49.50;100181.50;10457055;28;20041;-71
2022/06/16 07:41:36;;;;;;;14.30;2.80;;;;;;;27.88;55.10;100286.94;10457288;28;20093;-70
2022/06/16 07:46:38;;;;;;;5.68;2.60;;;;;;;26.69;57.98;100176.03;10456664;28;20044;-70
2022/06/16 07:51:41;;;;;;;19.52;4.53;;;;;;;27.17;60.18;100279.97;10455288;28;20080;-70
2022/06/16 07:56:42;;;;;;;13.77;3.00;;;;;;;27.28;60.55;100278.81;10456167;28;20041;-70
2022/06/16 08:01:43;;;;;;;5.72;2.28;;;;;;;27.36;57.79;100231.03;10455459;28;20041;-70
2022/06/16 08:06:44;;;;;;;12.98;2.75;;;;;;;28.12;56.11;100276.09;10455969;28;20053;-70
2022/06/16 08:17:06;;;;;;;6.13;2.38;;;;;;;27.55;53.80;100261.19;10455644;28;20048;-70
2022/06/16 08:22:08;;;;;;;4.75;1.88;;;;;;;27.37;52.54;100237.31;10455278;28;20447;-70
2022/06/16 08:27:09;;;;;;;4.50;2.05;;;;;;;26.75;52.00;100161.28;10453332;28;20047;-70
2022/06/16 08:32:12;;;;;;;5.95;1.90;;;;;;;26.62;53.88;100165.44;10454355;28;20155;-70
2022/06/16 08:37:13;;;;;;;5.73;1.80;;;;;;;27.34;54.18;100278.78;10454877;28;20124;-70
2022/06/16 08:42:43;;;;;;;18.48;3.38;;;;;;;27.38;53.12;100277.94;10477741;28;20135;-70
2022/06/16 08:47:56;;;;;;;4.45;1.90;;;;;;;27.15;51.50;100243.97;10482745;28;20048;-70
2022/06/16 08:53:31;;;;;;;17.33;2.35;;;;;;;28.20;48.96;100255.53;10477590;28;20564;-70
2022/06/16 08:58:52;;;;;;;8.10;2.03;;;;;;;28.36;46.85;100146.91;10495210;28;20045;-70
2022/06/16 09:04:02;;;;;;;8.18;2.05;;;;;;;29.88;46.98;100265.50;10501670;28;20068;-70
2022/06/16 09:15:12;;;;;;;5.65;1.90;;;;;;;30.50;44.35;100255.13;10504144;28;20123;-70
2022/06/16 09:20:21;;;;;;;7.55;1.95;;;;;;;30.06;44.32;100241.91;10503430;28;20067;-71
2022/06/16 09:25:39;;;;;;;4.10;1.70;;;;;;;30.13;43.37;100215.78;10503660;28;20173;-71
2022/06/16 09:30:44;;;;;;;7.03;1.75;;;;;;;30.09;42.25;100206.50;10502783;28;20499;-71
2022/06/16 09:36:16;;;;;;;2.80;1.50;;;;;;;30.58;42.16;100207.00;10502458;28;20052;-71
2022/06/16 09:46:51;;;;;;;5.35;1.73;;;;;;;29.99;42.85;100204.78;10477788;28;20048;-71
2022/06/16 09:52:03;;;;;;;5.88;1.67;;;;;;;29.46;45.54;100215.22;10484444;28;20044;-71
2022/06/16 09:57:09;;;;;;;4.47;1.98;;;;;;;29.02;50.96;100187.13;10501894;28;20047;-71
2022/06/16 10:02:39;;;;;;;13.85;3.00;;;;;;;29.51;49.15;100217.88;10500643;28;20036;-71
2022/06/16 10:07:52;;;;;;;12.63;2.95;;;;;;;29.84;47.58;100199.56;10502692;28;20059;-70
2022/06/16 10:13:18;;;;;;;7.03;1.85;;;;;;;29.90;44.32;100214.81;10501169;28;20044;-70
2022/06/16 10:18:19;;;;;;;9.40;2.10;;;;;;;29.60;45.93;100215.28;10501298;28;20048;-71
2022/06/16 10:23:30;;;;;;;18.25;3.35;;;;;;;29.77;45.33;100221.06;10500922;28;20040;-69
2022/06/16 10:28:43;;;;;;;7.88;1.83;;;;;;;29.69;44.10;100208.84;10500277;28;20105;-68
2022/06/16 10:33:56;;;;;;;3.45;2.08;;;;;;;28.37;43.08;99999.09;10500038;28;20482;-69
2022/06/16 10:39:15;;;;;;;5.05;2.17;;;;;;;28.49;43.26;100014.28;10485224;28;20040;-69
2022/06/16 10:44:19;;;;;;;6.53;2.20;;;;;;;29.91;41.95;100216.41;10484084;28;20040;-70
2022/06/16 10:49:25;;;;;;;6.20;2.03;;;;;;;29.17;42.48;100086.78;10499981;28;20381;-69
2022/06/16 10:54:31;;;;;;;7.60;2.45;;;;;;;29.89;41.00;100097.38;10492874;28;20086;-69
2022/06/16 10:59:37;;;;;;;5.38;2.40;;;;;;;30.59;40.01;100098.97;10466713;28;20068;-70
2022/06/16 11:04:41;;;;;;;6.25;2.08;;;;;;;30.88;39.86;100148.81;10482349;28;20123;-71
2022/06/16 11:09:44;;;;;;;33.92;3.80;;;;;;;31.01;40.63;100111.47;10471502;28;20110;-70
2022/06/16 11:15:00;;;;;;;;;;;;;;;32.09;40.32;100199.44;10457162;28;20053;-71
2022/06/16 11:20:10;;;;;;;3.20;2.03;;;;;;;31.19;38.04;100193.94;10485858;28;19966;-70
2022/06/16 11:25:32;;;;;;;7.25;2.40;;;;;;;30.30;39.63;100130.25;10492081;28;20045;-70
2022/06/16 11:30:32;;;;;;;11.23;3.10;;;;;;;30.51;40.28;100193.69;10457709;28;20044;-70
2022/06/16 11:35:42;;;;;;;11.90;2.80;;;;;;;30.48;39.98;100186.91;10456634;28;20161;-70
2022/06/16 11:41:01;;;;;;;5.70;2.22;;;;;;;29.62;40.08;100022.31;10456236;28;20124;-70
2022/06/16 11:46:14;;;;;;;3.05;2.30;;;;;;;30.54;39.56;100145.66;10456639;28;20606;-70
2022/06/16 11:51:29;;;;;;;80.88;6.45;;;;;;;31.00;39.04;100177.63;10455879;28;20044;-69
2022/06/16 11:56:33;;;;;;;6.80;2.70;;;;;;;31.42;38.59;100167.34;10456100;28;20033;-71
2022/06/16 12:01:42;;;;;;;4.13;2.17;;;;;;;30.59;37.69;100028.50;10456741;28;20075;-70
2022/06/16 12:06:52;;;;;;;4.50;2.42;;;;;;;31.63;36.89;100178.63;10481022;28;20060;-70
2022/06/16 12:12:14;;;;;;;4.75;2.40;;;;;;;31.58;37.43;100166.66;10489080;28;20048;-73
2022/06/16 12:17:24;;;;;;;;;;;;;;;31.37;38.48;100177.31;10492464;28;20048;-72
2022/06/16 12:22:51;;;;;;;7.23;2.23;;;;;;;30.86;38.85;100172.97;10457804;28;19924;-71
2022/06/16 12:28:13;;;;;;;4.65;2.30;;;;;;;30.64;37.60;100145.47;10493522;28;20032;-73
2022/06/16 12:33:23;;;;;;;5.03;2.45;;;;;;;30.91;37.75;100133.66;10476335;28;20412;-69
2022/06/16 12:38:32;;;;;;;6.28;2.30;;;;;;;31.36;36.72;100120.00;10465072;28;20052;-71
2022/06/16 12:43:41;;;;;;;8.40;2.40;;;;;;;30.71;37.30;100015.06;10467698;28;20041;-69
2022/06/16 12:49:04;;;;;;;4.28;2.20;;;;;;;30.62;37.00;100052.56;10474507;28;20037;-71
2022/06/16 12:54:16;;;;;;;5.53;2.35;;;;;;;30.07;37.45;100043.59;10479550;28;20055;-71
2022/06/16 12:59:22;;;;;;;3.05;2.03;;;;;;;30.81;37.45;100153.91;10478379;28;20454;-70
2022/06/16 13:04:27;;;;;;;10.32;2.15;;;;;;;30.24;37.72;100041.06;10479620;28;20083;-70
2022/06/16 13:09:28;;;;;;;3.88;2.28;;;;;;;30.73;37.45;100146.38;10472952;28;20132;-68
2022/06/16 13:14:33;;;;;;;9.75;2.15;;;;;;;30.54;37.29;100153.88;10467202;28;20047;-68
2022/06/16 13:19:50;;;;;;;16.85;3.55;;;;;;;30.40;36.76;100157.47;10482617;28;20636;-68
2022/06/16 13:24:55;;;;;;;4.88;2.30;;;;;;;30.52;37.38;100150.66;10486245;28;20135;-70
2022/06/16 13:30:05;;;;;;;6.75;2.10;;;;;;;30.67;36.77;100137.44;10470536;28;20054;-70
2022/06/16 13:35:12;;;;;;;41.78;4.10;;;;;;;30.95;38.18;100139.34;10468356;28;20116;-70
2022/06/16 13:40:25;;;;;;;5.30;2.13;;;;;;;31.63;35.84;100154.72;10482026;28;20068;-71
2022/06/16 13:45:29;;;;;;;3.85;1.90;;;;;;;31.58;35.13;100160.34;10482324;28;20044;-73
2022/06/16 13:50:41;;;;;;;5.10;2.33;;;;;;;31.01;36.25;100127.13;10483418;28;20416;-69
2022/06/16 13:55:57;;;;;;;4.90;2.00;;;;;;;30.13;36.92;100045.13;10478850;28;20044;-70
2022/06/16 14:01:04;;;;;;;5.85;2.40;;;;;;;30.30;37.63;100152.19;10492573;28;20056;-69
2022/06/16 14:06:13;;;;;;;19.55;3.30;;;;;;;29.98;38.00;100131.94;10500815;28;20034;-69
2022/06/16 14:11:22;;;;;;;7.05;2.58;;;;;;;30.06;37.53;100119.47;10501513;28;20060;-68
2022/06/16 14:16:34;;;;;;;4.00;2.33;;;;;;;29.53;37.39;100044.06;10483062;28;20044;-70
2022/06/16 14:21:44;;;;;;;45.13;4.75;;;;;;;29.67;38.22;100111.72;10500837;28;20500;-70
2022/06/16 14:26:46;;;;;;;4.28;2.60;;;;;;;29.93;37.69;100093.69;10483322;28;20439;-70
2022/06/16 14:31:56;;;;;;;7.72;2.25;;;;;;;29.97;36.44;100031.72;10501251;28;20131;-69
2022/06/16 14:37:05;;;;;;;6.05;2.03;;;;;;;30.79;35.59;100138.88;10500706;28;20033;-70
2022/06/16 14:42:13;;;;;;;6.93;2.08;;;;;;;31.00;35.23;100163.91;10500679;28;20404;-70
2022/06/16 14:47:56;;;;;;;5.15;2.40;;;;;;;31.13;34.96;100157.56;10500462;28;20035;-69
2022/06/16 14:53:05;;;;;;;3.63;2.00;;;;;;;30.98;35.01;100160.66;10479897;28;20110;-68
2022/06/16 14:58:06;;;;;;;4.03;1.88;;;;;;;30.25;34.70;100061.88;10459062;28;20045;-69
2022/06/16 15:03:12;;;;;;;20.13;3.42;;;;;;;30.73;35.08;100153.78;10457631;28;20048;-69
2022/06/16 15:08:26;;;;;;;4.20;1.85;;;;;;;30.96;34.03;100171.13;10457390;28;20050;-70
2022/06/16 15:13:29;;;;;;;4.93;2.00;;;;;;;30.85;33.86;100174.09;10457083;28;20072;-68
2022/06/16 15:18:35;;;;;;;13.90;2.63;;;;;;;30.58;34.00;100171.38;10441349;28;20064;-69
2022/06/16 15:23:39;;;;;;;11.65;2.03;;;;;;;30.49;33.98;100154.81;10499063;28;20041;-70
2022/06/16 15:28:57;;;;;;;8.60;2.13;;;;;;;30.62;33.72;100170.44;10498414;28;20157;-68
2022/06/16 15:39:30;;;;;;;18.75;3.35;;;;;;;29.67;35.05;100096.09;10498089;28;20044;-72
2022/06/16 15:44:40;;;;;;;20.55;2.97;;;;;;;29.97;35.10;100185.09;10498943;28;20078;-68
2022/06/16 15:49:44;;;;;;;4.30;1.98;;;;;;;29.60;35.42;100187.91;10497597;28;20044;-68
2022/06/16 15:54:47;;;;;;;4.50;2.30;;;;;;;28.04;35.63;99995.47;10479758;28;20037;-70
2022/06/16 15:59:56;;;;;;;4.20;2.25;;;;;;;29.05;35.74;100189.28;10497429;28;20060;-68
2022/06/16 16:05:00;;;;;;;16.00;2.80;;;;;;;28.88;36.03;100203.41;10497329;28;20032;-68
2022/06/16 16:10:05;;;;;;;7.13;2.33;;;;;;;28.61;36.14;100203.22;10496881;28;20481;-69
2022/06/16 16:15:13;;;;;;;5.70;2.30;;;;;;;28.35;36.84;100219.03;10497686;28;20048;-69
2022/06/16 16:20:20;;;;;;;5.70;2.50;;;;;;;28.17;36.98;100226.88;10497263;28;20048;-69
2022/06/16 16:25:27;;;;;;;3.30;2.47;;;;;;;26.54;37.49;100007.19;10494133;28;20036;-69
2022/06/16 16:30:38;;;;;;;5.60;2.60;;;;;;;27.57;38.00;100215.34;10494352;28;20052;-68
2022/06/16 16:35:40;;;;;;;5.15;2.70;;;;;;;26.69;38.63;100118.81;10491878;28;20044;-71
2022/06/16 16:46:16;;;;;;;6.78;2.63;;;;;;;27.10;40.54;100249.41;10495220;28;20036;-69
2022/06/16 16:51:20;;;;;;;5.50;3.00;;;;;;;26.74;40.85;100230.47;10492736;28;20059;-68
2022/06/16 16:56:38;;;;;;;5.20;3.00;;;;;;;26.70;41.82;100255.84;10488095;28;20063;-70
2022/06/16 17:01:43;;;;;;;6.57;3.30;;;;;;;26.61;41.40;100272.75;10459336;28;20041;-69
2022/06/16 17:06:44;;;;;;;4.38;2.90;;;;;;;26.50;41.86;100279.31;10494930;28;20439;-71
2022/06/16 17:11:52;;;;;;;4.90;3.22;;;;;;;26.32;41.93;100285.31;10490089;28;20054;-69
2022/06/16 17:16:54;;;;;;;4.07;3.20;;;;;;;25.48;42.10;100187.59;10474457;28;20051;-68
2022/06/16 17:21:55;;;;;;;6.55;2.95;;;;;;;26.11;42.17;100312.53;10492622;28;20044;-69
2022/06/16 17:26:56;;;;;;;5.65;3.00;;;;;;;25.11;42.12;100165.22;10501211;28;20748;-69
2022/06/16 17:31:57;;;;;;;7.57;3.10;;;;;;;25.85;42.50;100303.56;10499349;28;20044;-70
2022/06/16 17:36:59;;;;;;;3.72;2.67;;;;;;;25.88;42.75;100337.59;10497667;28;20070;-70
2022/06/16 17:42:00;;;;;;;7.15;3.38;;;;;;;25.87;42.29;100333.22;10498626;28;20040;-70
2022/06/16 17:47:01;;;;;;;6.60;3.30;;;;;;;25.74;42.01;100307.31;10500879;28;20040;-70
2022/06/16 18:02:33;;;;;;;13.43;3.55;;;;;;;25.70;43.25;100349.78;10502165;28;20102;-70
2022/06/16 18:07:36;;;;;;;6.85;3.08;;;;;;;25.54;43.62;100343.44;10502103;28;20055;-70
2022/06/16 18:12:37;;;;;;;11.00;3.80;;;;;;;25.49;43.68;100349.69;10500408;28;20482;-70
2022/06/16 18:17:38;;;;;;;8.52;3.40;;;;;;;25.40;43.97;100364.09;10501216;28;20055;-70
2022/06/16 18:22:41;;;;;;;5.72;3.08;;;;;;;25.19;43.77;100355.84;10500834;28;20377;-70
2022/06/16 18:27:43;;;;;;;10.83;3.37;;;;;;;24.99;43.85;100353.78;10501171;28;20045;-69
2022/06/16 18:32:44;;;;;;;7.03;3.42;;;;;;;24.98;43.97;100349.44;10500823;28;20044;-70
2022/06/16 18:37:45;;;;;;;6.72;3.80;;;;;;;25.04;43.97;100382.91;10497130;28;20047;-70
2022/06/16 18:42:46;;;;;;;8.52;3.53;;;;;;;25.02;44.29;100385.88;10497228;28;20086;-70
2022/06/16 18:47:46;;;;;;;8.27;4.00;;;;;;;24.34;44.31;100292.50;10495861;28;20047;-69
2022/06/16 18:52:48;;;;;;;7.20;3.80;;;;;;;23.49;44.36;100170.25;10496075;28;20411;-70
2022/06/16 18:57:48;;;;;;;6.03;3.90;;;;;;;24.90;44.71;100393.41;10498183;28;20040;-70
2022/06/16 19:02:53;;;;;;;6.57;3.55;;;;;;;24.88;45.25;100402.91;10500026;28;20044;-69
2022/06/16 19:07:54;;;;;;;7.22;3.65;;;;;;;24.86;45.44;100408.63;10480207;28;20462;-69
2022/06/16 19:12:57;;;;;;;11.75;3.50;;;;;;;24.70;45.32;100402.22;10481364;28;20083;-70
2022/06/16 19:18:02;;;;;;;8.50;3.87;;;;;;;24.77;46.09;100418.34;10497755;28;20032;-69
2022/06/16 19:23:07;;;;;;;8.93;3.60;;;;;;;24.73;46.91;100422.63;10499023;28;20044;-69
2022/06/16 19:28:09;;;;;;;6.90;4.00;;;;;;;24.35;47.34;100391.84;10498891;28;20037;-69
2022/06/16 19:33:12;;;;;;;8.18;4.03;;;;;;;24.31;48.09;100413.28;10440009;28;20404;-69
2022/06/16 19:38:40;;;;;;;20.70;4.15;;;;;;;24.12;49.10;100399.25;10447229;28;20202;-69
2022/06/16 19:54:20;;;;;;;6.88;4.28;;;;;;;23.32;48.50;100324.03;10456540;28;20513;-69
2022/06/16 19:59:21;;;;;;;13.80;4.55;;;;;;;23.37;49.21;100338.47;10455786;28;20060;-71
2022/06/16 20:04:23;;;;;;;5.93;4.68;;;;;;;23.66;49.12;100385.19;10456353;28;20040;-69
2022/06/16 20:09:25;;;;;;;10.45;4.47;;;;;;;23.06;49.29;100288.47;10456037;28;20106;-69
2022/06/16 20:14:26;;;;;;;15.63;5.03;;;;;;;23.20;49.69;100310.63;10455090;28;20528;-69
2022/06/16 20:19:27;;;;;;;6.03;4.75;;;;;;;23.09;49.67;100298.81;10455863;28;20143;-69
2022/06/16 20:24:32;;;;;;;7.55;5.03;;;;;;;22.42;49.88;100196.09;10454407;28;20127;-69
2022/06/16 20:29:34;;;;;;;10.25;5.00;;;;;;;23.60;50.06;100382.66;10455760;28;20526;-69
2022/06/16 20:34:35;;;;;;;5.82;5.10;;;;;;;22.97;50.35;100281.88;10455114;28;20496;-69
2022/06/16 20:39:35;;;;;;;9.07;5.72;;;;;;;23.49;51.18;100402.59;10455559;28;20048;-69
2022/06/16 20:44:40;;;;;;;6.65;5.03;;;;;;;23.51;51.16;100406.66;10453754;28;20037;-70
2022/06/16 20:49:43;;;;;;;8.40;5.32;;;;;;;22.75;51.26;100292.66;10454954;28;20037;-69
2022/06/16 20:54:45;;;;;;;10.23;5.45;;;;;;;23.16;51.93;100369.09;10454412;28;20071;-69
2022/06/16 21:05:18;;;;;;;7.50;5.72;;;;;;;23.14;53.48;100401.84;10453807;28;20067;-69
2022/06/16 21:10:21;;;;;;;7.38;5.47;;;;;;;23.18;52.90;100413.00;10452629;28;20093;-69
2022/06/16 21:15:24;;;;;;;10.95;5.30;;;;;;;22.87;53.22;100374.63;10454199;28;20056;-69
2022/06/16 21:20:33;;;;;;;9.05;5.75;;;;;;;23.09;53.80;100419.94;10454687;28;20052;-70
2022/06/16 21:25:34;;;;;;;8.98;5.63;;;;;;;23.06;54.49;100415.81;10454312;28;20041;-69
2022/06/16 21:30:38;;;;;;;15.48;6.03;;;;;;;22.97;54.91;100414.59;10452964;28;20037;-69
2022/06/16 21:35:41;;;;;;;9.90;5.60;;;;;;;22.00;55.89;100296.63;10452075;28;20068;-69
2022/06/16 21:40:42;;;;;;;10.30;5.80;;;;;;;22.66;56.03;100418.72;10454303;28;20037;-69
2022/06/16 21:45:47;;;;;;;15.15;5.57;;;;;;;21.85;56.40;100300.69;10453467;28;20545;-69
2022/06/16 21:50:52;;;;;;;10.15;6.07;;;;;;;22.52;57.68;100410.09;10453489;28;20052;-69
2022/06/16 21:55:53;;;;;;;6.32;5.43;;;;;;;22.61;56.78;100419.44;10451427;28;20140;-69
2022/06/16 22:00:56;;;;;;;11.07;5.50;;;;;;;22.46;57.67;100421.88;10452672;28;20155;-69
2022/06/16 22:05:58;;;;;;;7.43;5.50;;;;;;;22.44;57.63;100429.47;10434643;28;20519;-69
2022/06/16 22:16:18;;;;;;;10.35;5.75;;;;;;;22.17;57.96;100372.44;10460496;28;20503;-69
2022/06/16 22:21:24;;;;;;;8.63;5.95;;;;;;;22.36;59.34;100395.47;10459824;28;20040;-69
2022/06/16 22:26:30;;;;;;;7.13;5.85;;;;;;;22.49;58.78;100410.56;10464318;28;20036;-69
2022/06/16 22:31:36;;;;;;;9.73;5.82;;;;;;;21.81;59.29;100290.63;10501116;28;20040;-69
2022/06/16 22:36:40;;;;;;;6.25;5.35;;;;;;;22.48;58.81;100401.63;10500551;28;20040;-69
2022/06/16 22:41:44;;;;;;;9.13;5.50;;;;;;;22.36;59.27;100381.13;10500804;28;20133;-68
2022/06/16 22:46:47;;;;;;;7.32;5.57;;;;;;;22.20;59.76;100370.03;10500704;28;20117;-70
2022/06/16 22:51:48;;;;;;;11.18;5.65;;;;;;;22.16;59.37;100368.84;10500245;28;20043;-68
2022/06/16 22:56:50;;;;;;;10.30;5.63;;;;;;;22.28;59.78;100402.09;10499680;28;20040;-69
2022/06/16 23:01:50;;;;;;;7.05;6.03;;;;;;;22.10;60.18;100383.34;10499571;28;20037;-69
2022/06/16 23:06:53;;;;;;;10.93;6.05;;;;;;;22.05;60.97;100389.50;10499866;28;20057;-69
2022/06/16 23:11:54;;;;;;;6.65;5.50;;;;;;;21.90;60.94;100375.69;10481554;28;20048;-69
2022/06/16 23:16:57;;;;;;;5.93;5.32;;;;;;;21.89;61.75;100374.84;10499358;28;20499;-68
2022/06/16 23:22:01;;;;;;;9.40;6.03;;;;;;;21.88;62.24;100385.94;10498238;28;20041;-68
2022/06/16 23:27:02;;;;;;;11.55;6.07;;;;;;;21.96;61.72;100390.97;10499036;28;20047;-69
2022/06/16 23:32:04;;;;;;;6.43;5.25;;;;;;;21.71;61.75;100342.59;10498926;28;20044;-69
2022/06/16 23:37:05;;;;;;;7.07;5.72;;;;;;;21.99;62.04;100381.53;10498515;28;20044;-69
2022/06/16 23:42:07;;;;;;;7.53;6.10;;;;;;;21.82;62.67;100360.66;10498449;28;20036;-68
2022/06/16 23:47:13;;;;;;;9.73;6.78;;;;;;;22.00;64.12;100383.16;10497983;28;20048;-69
2022/06/16 23:52:20;;;;;;;9.02;6.25;;;;;;;21.85;64.32;100370.19;10497362;28;20093;-68
2022/06/16 23:57:21;;;;;;;8.02;5.85;;;;;;;21.85;63.34;100376.41;10492433;28;20053;-69
